Time;durP1;ratioP1;P1;durP2;ratioP2;P2;SDS_P1;SDS_P2;PMS_P1;PMS_P2;Temp;Humidity;BMP_temperature;BMP_pressure;BME280_temperature;BME280_humidity;BME280_pressure;Samples;Min_cycle;Max_cycle;Signal;HPM_P1;HPM_P2
2022/06/08 00:00:33;;;;;;;17.57;8.30;;;11.50;88.10;;;;;;5029791;28;20123;-43
2022/06/08 00:03:09;;;;;;;10.25;8.02;;;11.50;88.20;;;;;;5045142;28;20033;-42
2022/06/08 00:05:40;;;;;;;10.73;8.18;;;11.50;88.30;;;;;;5028486;28;20333;-43
2022/06/08 00:08:07;;;;;;;12.98;8.20;;;11.50;88.30;;;;;;5024343;28;20072;-42
2022/06/08 00:10:34;;;;;;;16.38;8.20;;;11.50;88.20;;;;;;5011568;28;20389;-45
2022/06/08 00:13:02;;;;;;;13.77;7.45;;;11.40;88.30;;;;;;5048402;28;20353;-42
2022/06/08 00:15:27;;;;;;;11.57;7.30;;;11.40;88.40;;;;;;5046400;28;20033;-43
2022/06/08 00:17:54;;;;;;;10.35;6.80;;;11.40;88.30;;;;;;5028793;28;20115;-43
2022/06/08 00:20:22;;;;;;;10.18;7.03;;;11.40;88.40;;;;;;5028750;28;20042;-42
2022/06/08 00:22:48;;;;;;;10.43;8.00;;;11.40;88.40;;;;;;5047081;28;20374;-42
2022/06/08 00:25:16;;;;;;;10.90;6.60;;;11.40;88.40;;;;;;5043473;28;20036;-43
2022/06/08 00:27:43;;;;;;;13.70;6.15;;;11.30;88.40;;;;;;5049138;28;20039;-43
2022/06/08 00:30:10;;;;;;;11.68;6.03;;;11.30;88.50;;;;;;5030417;28;20037;-44
2022/06/08 00:32:36;;;;;;;9.48;6.75;;;11.30;88.40;;;;;;5024256;28;20040;-43
2022/06/08 00:35:03;;;;;;;10.25;5.78;;;11.20;88.40;;;;;;5053037;28;20360;-43
2022/06/08 00:37:30;;;;;;;9.10;6.43;;;11.20;88.40;;;;;;5049063;28;20033;-43
2022/06/08 00:39:57;;;;;;;6.68;5.43;;;11.20;88.40;;;;;;5035541;28;20406;-42
2022/06/08 00:42:27;;;;;;;8.23;6.22;;;11.20;88.40;;;;;;5032174;28;20100;-42
2022/06/08 00:45:07;;;;;;;7.47;5.45;;;11.20;88.50;;;;;;5033281;28;20061;-42
2022/06/08 00:47:42;;;;;;;10.25;6.13;;;11.20;88.50;;;;;;5032806;28;20354;-42
2022/06/08 00:50:29;;;;;;;14.05;7.00;;;11.10;88.50;;;;;;5031748;28;20044;-42
2022/06/08 00:52:58;;;;;;;11.65;6.13;;;11.10;88.50;;;;;;5032150;28;20038;-42
2022/06/08 00:55:29;;;;;;;7.23;5.67;;;11.10;88.40;;;;;;5046579;28;20116;-43
2022/06/08 00:58:03;;;;;;;7.97;5.88;;;11.10;88.50;;;;;;5052446;28;20380;-42
2022/06/08 01:00:37;;;;;;;7.55;5.57;;;11.10;88.50;;;;;;5033005;28;20119;-41
2022/06/08 01:03:08;;;;;;;8.63;5.68;;;11.00;88.50;;;;;;5032389;28;20037;-43
2022/06/08 01:05:38;;;;;;;8.23;6.57;;;11.00;88.60;;;;;;5048084;28;20037;-41
2022/06/08 01:08:15;;;;;;;13.93;6.35;;;11.00;88.50;;;;;;5049345;28;20032;-43
2022/06/08 01:10:47;;;;;;;7.00;5.45;;;11.00;88.50;;;;;;5048836;28;20042;-41
2022/06/08 01:13:14;;;;;;;8.02;5.25;;;10.90;88.40;;;;;;5047776;28;20365;-41
2022/06/08 01:15:42;;;;;;;8.73;6.53;;;10.90;88.50;;;;;;5014418;28;20096;-42
2022/06/08 01:18:10;;;;;;;10.63;5.90;;;10.90;88.50;;;;;;5014087;28;20033;-43
2022/06/08 01:20:47;;;;;;;11.32;6.20;;;10.90;88.60;;;;;;5011541;28;20029;-42
2022/06/08 01:23:15;;;;;;;7.88;6.50;;;10.90;88.50;;;;;;5031480;28;20429;-43
2022/06/08 01:26:10;;;;;;;8.73;5.80;;;10.90;88.60;;;;;;5032948;28;20689;-41
2022/06/08 01:28:57;;;;;;;8.40;6.10;;;10.90;88.60;;;;;;5030314;28;20030;-41
2022/06/08 01:31:35;;;;;;;8.93;5.43;;;10.90;88.50;;;;;;5031092;28;20037;-42
2022/06/08 01:34:13;;;;;;;6.40;5.32;;;10.90;88.60;;;;;;5021754;28;20361;-42
2022/06/08 01:37:16;;;;;;;7.53;5.28;;;10.80;88.60;;;;;;5038146;28;20482;-41
2022/06/08 01:40:22;;;;;;;11.52;6.93;;;10.80;88.60;;;;;;5028357;28;20083;-43
2022/06/08 01:42:53;;;;;;;8.50;5.93;;;10.80;88.60;;;;;;5019408;28;20069;-41
2022/06/08 01:45:46;;;;;;;8.13;5.47;;;10.80;88.70;;;;;;5011245;28;20022;-41
2022/06/08 01:48:30;;;;;;;11.13;5.88;;;10.80;88.70;;;;;;5011719;28;20032;-42
2022/06/08 01:51:17;;;;;;;9.80;7.75;;;10.70;88.70;;;;;;5012008;28;20038;-41
2022/06/08 01:54:30;;;;;;;8.32;6.28;;;10.70;88.70;;;;;;5020972;28;20026;-41
2022/06/08 01:57:33;;;;;;;13.07;7.80;;;10.70;88.70;;;;;;4974535;28;20077;-40
2022/06/08 02:00:09;;;;;;;11.82;6.70;;;10.70;88.70;;;;;;5014073;28;20069;-41
2022/06/08 02:02:53;;;;;;;8.93;7.18;;;10.60;88.80;;;;;;5002499;28;20045;-42
2022/06/08 02:05:32;;;;;;;13.18;9.02;;;10.60;88.90;;;;;;5010861;28;20080;-42
2022/06/08 02:08:14;;;;;;;15.07;8.48;;;10.60;88.90;;;;;;5027051;28;20058;-41
2022/06/08 02:10:58;;;;;;;11.63;7.88;;;10.50;88.80;;;;;;5013381;28;20064;-41
2022/06/08 02:13:49;;;;;;;9.85;8.90;;;10.50;89.00;;;;;;5006909;28;20030;-41
2022/06/08 02:16:26;;;;;;;9.65;8.30;;;10.50;89.00;;;;;;5029560;28;20401;-41
2022/06/08 02:19:01;;;;;;;11.35;8.52;;;10.50;89.10;;;;;;5023279;28;20096;-43
2022/06/08 02:21:51;;;;;;;13.55;9.73;;;10.50;89.10;;;;;;5014258;28;20041;-40
2022/06/08 02:24:21;;;;;;;9.98;8.85;;;10.40;89.20;;;;;;4994305;28;20037;-41
2022/06/08 02:26:55;;;;;;;11.35;9.85;;;10.40;89.30;;;;;;5010311;28;20032;-42
2022/06/08 02:29:38;;;;;;;10.25;8.93;;;10.40;89.30;;;;;;4994231;28;20040;-40
2022/06/08 02:35:34;;;;;;;13.40;10.48;;;10.40;89.40;;;;;;4961694;28;20037;-42
2022/06/08 02:38:10;;;;;;;11.15;9.95;;;10.40;89.50;;;;;;4994489;28;20023;-40
2022/06/08 02:40:45;;;;;;;11.93;9.82;;;10.40;89.50;;;;;;5017607;28;20045;-41
2022/06/08 02:43:31;;;;;;;12.90;10.00;;;10.40;89.40;;;;;;5014691;28;20022;-41
2022/06/08 02:46:13;;;;;;;10.75;9.25;;;10.40;89.30;;;;;;5026668;28;20045;-42
2022/06/08 02:48:39;;;;;;;11.88;9.30;;;10.40;89.20;;;;;;5010522;28;20046;-41
2022/06/08 02:51:07;;;;;;;11.15;9.95;;;10.40;89.30;;;;;;5011075;28;20481;-40
2022/06/08 02:53:59;;;;;;;10.93;8.75;;;10.30;89.20;;;;;;5012283;28;20084;-43
2022/06/08 02:56:26;;;;;;;12.20;9.63;;;10.30;89.10;;;;;;5011219;28;20040;-42
2022/06/08 02:59:34;;;;;;;9.88;8.65;;;10.30;89.20;;;;;;5010572;28;20092;-41
2022/06/08 03:02:21;;;;;;;12.70;9.68;;;10.20;89.10;;;;;;4991374;28;20046;-40
2022/06/08 03:04:52;;;;;;;12.05;9.73;;;10.20;89.10;;;;;;5024835;28;20033;-41
2022/06/08 03:07:26;;;;;;;9.98;8.90;;;10.20;89.10;;;;;;5014303;28;20022;-41
2022/06/08 03:09:58;;;;;;;12.20;10.50;;;10.20;89.10;;;;;;5009886;28;20022;-45
2022/06/08 03:12:51;;;;;;;15.07;9.20;;;10.20;89.20;;;;;;5024595;28;20045;-41
2022/06/08 03:15:23;;;;;;;10.73;9.18;;;10.20;89.10;;;;;;5010210;28;20131;-41
2022/06/08 03:17:50;;;;;;;10.80;9.70;;;10.10;89.10;;;;;;5009517;28;20026;-40
2022/06/08 03:20:21;;;;;;;11.35;8.23;;;10.20;89.20;;;;;;5008334;28;20018;-42
2022/06/08 03:22:48;;;;;;;12.38;9.50;;;10.20;89.30;;;;;;5009221;28;20102;-41
2022/06/08 03:25:16;;;;;;;11.65;9.38;;;10.20;89.20;;;;;;5009921;28;20022;-45
2022/06/08 03:27:46;;;;;;;13.05;9.13;;;10.10;89.20;;;;;;4997763;28;20029;-43
2022/06/08 03:30:14;;;;;;;11.98;9.80;;;10.20;89.30;;;;;;5018895;28;20032;-43
2022/06/08 03:32:42;;;;;;;11.02;9.93;;;10.20;89.30;;;;;;5012420;28;20029;-41
2022/06/08 03:35:08;;;;;;;9.77;8.73;;;10.20;89.30;;;;;;5001804;28;20026;-41
2022/06/08 03:37:35;;;;;;;10.57;9.48;;;10.20;89.20;;;;;;5028969;28;20044;-41
2022/06/08 03:40:03;;;;;;;11.10;9.95;;;10.20;89.30;;;;;;5030289;28;20040;-45
2022/06/08 03:42:30;;;;;;;12.32;9.75;;;10.30;89.40;;;;;;5046683;28;20024;-43
2022/06/08 03:44:57;;;;;;;10.07;9.00;;;10.30;89.30;;;;;;5011586;28;20025;-42
2022/06/08 03:47:31;;;;;;;11.88;9.68;;;10.30;89.30;;;;;;5047181;28;20032;-42
2022/06/08 03:50:02;;;;;;;11.15;9.45;;;10.30;89.40;;;;;;5048165;28;20424;-41
2022/06/08 03:52:35;;;;;;;11.88;9.63;;;10.40;89.40;;;;;;5045113;28;20041;-41
2022/06/08 03:55:06;;;;;;;11.05;9.70;;;10.40;89.30;;;;;;5028894;28;20025;-40
2022/06/08 03:57:36;;;;;;;12.43;9.43;;;10.40;89.20;;;;;;5029643;28;20168;-41
2022/06/08 04:00:05;;;;;;;12.35;10.52;;;10.40;89.20;;;;;;5011297;28;20034;-42
2022/06/08 04:02:32;;;;;;;11.63;9.68;;;10.40;89.20;;;;;;5024049;28;20049;-41
2022/06/08 04:04:59;;;;;;;10.32;8.73;;;10.40;89.20;;;;;;5029159;28;20025;-40
2022/06/08 04:07:26;;;;;;;9.80;8.75;;;10.40;89.10;;;;;;5029175;28;20059;-43
2022/06/08 04:09:53;;;;;;;10.88;8.77;;;10.40;89.10;;;;;;5029150;28;20409;-40
2022/06/08 04:12:22;;;;;;;11.77;10.05;;;10.40;89.20;;;;;;5028431;28;20096;-40
2022/06/08 04:14:50;;;;;;;11.88;9.75;;;10.40;89.20;;;;;;5029609;28;20098;-40
2022/06/08 04:17:16;;;;;;;12.07;10.65;;;10.50;89.30;;;;;;5026785;28;20350;-40
2022/06/08 04:19:43;;;;;;;18.13;11.82;;;10.60;89.30;;;;;;5045237;28;20055;-40
2022/06/08 04:22:10;;;;;;;13.57;10.73;;;10.60;89.30;;;;;;5026028;28;20029;-40
2022/06/08 04:24:37;;;;;;;11.65;9.85;;;10.60;89.30;;;;;;5048830;28;20029;-41
2022/06/08 04:27:04;;;;;;;11.90;10.32;;;10.70;89.40;;;;;;5034435;28;20110;-40
2022/06/08 04:29:31;;;;;;;11.63;10.43;;;10.70;89.30;;;;;;5028795;28;20408;-41
2022/06/08 04:31:58;;;;;;;12.05;10.27;;;10.80;89.20;;;;;;5035900;28;20025;-41
2022/06/08 04:34:25;;;;;;;13.02;11.48;;;10.80;89.20;;;;;;5043939;28;20400;-40
2022/06/08 04:36:53;;;;;;;13.48;11.77;;;10.90;89.30;;;;;;5029274;28;20041;-40
2022/06/08 04:39:19;;;;;;;14.55;10.95;;;10.90;89.30;;;;;;5034966;28;20033;-40
2022/06/08 04:41:47;;;;;;;12.35;10.15;;;11.00;89.30;;;;;;5048735;28;20036;-40
2022/06/08 04:44:13;;;;;;;12.75;11.02;;;11.00;89.30;;;;;;5018248;28;20096;-39
2022/06/08 04:46:40;;;;;;;11.88;10.68;;;11.00;89.20;;;;;;5041632;28;20457;-40
2022/06/08 04:49:09;;;;;;;13.18;10.57;;;11.00;89.40;;;;;;5047518;28;20108;-40
2022/06/08 04:51:36;;;;;;;13.30;11.43;;;11.10;89.40;;;;;;5049117;28;20029;-41
2022/06/08 04:54:02;;;;;;;12.35;10.48;;;11.20;89.40;;;;;;5046566;28;20038;-40
2022/06/08 04:56:29;;;;;;;11.65;10.45;;;11.30;89.60;;;;;;5037607;28;20090;-42
2022/06/08 04:58:56;;;;;;;13.13;10.85;;;11.50;89.60;;;;;;5031284;28;20045;-42
2022/06/08 05:01:22;;;;;;;13.80;10.98;;;11.50;89.40;;;;;;5040324;28;20037;-41
2022/06/08 05:03:49;;;;;;;10.70;9.00;;;11.60;89.20;;;;;;5029121;28;20337;-42
2022/06/08 05:06:16;;;;;;;16.02;9.95;;;11.60;89.10;;;;;;5028306;28;20029;-41
2022/06/08 05:08:44;;;;;;;12.43;10.20;;;11.70;89.10;;;;;;5028419;28;20469;-41
2022/06/08 05:11:11;;;;;;;13.02;10.32;;;11.70;89.10;;;;;;5023460;28;20469;-42
2022/06/08 05:13:37;;;;;;;12.40;9.85;;;11.80;89.10;;;;;;5029858;28;20101;-42
2022/06/08 05:16:05;;;;;;;13.00;9.75;;;11.90;89.10;;;;;;5048915;28;20109;-41
2022/06/08 05:18:36;;;;;;;13.10;10.43;;;11.90;89.10;;;;;;5028737;28;20450;-40
2022/06/08 05:21:03;;;;;;;12.48;8.68;;;12.00;89.00;;;;;;5040849;28;20123;-41
2022/06/08 05:23:33;;;;;;;12.88;8.10;;;12.10;89.00;;;;;;5033704;28;20330;-41
2022/06/08 05:26:00;;;;;;;9.52;8.10;;;12.20;89.00;;;;;;5034869;28;20058;-41
2022/06/08 05:28:27;;;;;;;10.57;8.73;;;12.30;88.80;;;;;;5019893;28;20029;-40
2022/06/08 05:30:56;;;;;;;10.27;7.88;;;12.40;88.80;;;;;;5046444;28;20454;-40
2022/06/08 05:33:26;;;;;;;14.23;9.23;;;12.50;88.60;;;;;;5032128;28;20037;-41
2022/06/08 05:35:54;;;;;;;12.93;9.32;;;12.60;88.60;;;;;;5014476;28;20046;-42
2022/06/08 05:38:22;;;;;;;12.02;9.35;;;12.70;88.20;;;;;;5046942;28;20033;-41
2022/06/08 05:40:48;;;;;;;13.73;7.93;;;12.90;88.00;;;;;;5032143;28;20037;-41
2022/06/08 05:43:17;;;;;;;11.00;8.13;;;12.90;87.80;;;;;;5035401;28;20037;-42
2022/06/08 05:45:45;;;;;;;9.63;7.60;;;13.20;87.90;;;;;;5027352;28;20022;-42
2022/06/08 05:48:12;;;;;;;11.73;8.15;;;13.50;87.20;;;;;;5038443;28;20069;-41
2022/06/08 05:50:39;;;;;;;8.73;7.13;;;13.70;86.60;;;;;;5050254;28;20174;-40
2022/06/08 05:53:09;;;;;;;8.98;7.13;;;14.10;86.20;;;;;;5034481;28;20524;-42
2022/06/08 05:55:35;;;;;;;10.88;7.60;;;14.40;85.60;;;;;;5025378;28;20057;-42
2022/06/08 05:58:02;;;;;;;7.88;6.22;;;14.60;84.60;;;;;;5030799;28;20100;-42
2022/06/08 06:00:35;;;;;;;8.20;6.03;;;14.90;84.00;;;;;;5039869;28;20056;-41
2022/06/08 06:03:03;;;;;;;6.47;5.03;;;15.00;83.30;;;;;;5049797;28;20048;-42
2022/06/08 06:05:32;;;;;;;8.93;6.20;;;15.20;83.60;;;;;;5050706;28;20497;-41
2022/06/08 06:08:00;;;;;;;8.90;7.00;;;15.40;83.20;;;;;;5032706;28;20060;-43
2022/06/08 06:10:30;;;;;;;9.93;6.63;;;15.50;82.40;;;;;;5016043;28;20418;-42
2022/06/08 06:13:00;;;;;;;;;;;15.90;82.20;;;;;;5026412;28;20040;-41
2022/06/08 06:15:29;;;;;;;9.30;6.78;;;16.40;81.70;;;;;;5051514;28;19948;-43
2022/06/08 06:17:56;;;;;;;8.05;7.05;;;16.40;79.70;;;;;;5046115;28;20037;-43
2022/06/08 06:20:23;;;;;;;9.43;6.82;;;16.40;80.00;;;;;;5050394;28;20025;-42
2022/06/08 06:22:50;;;;;;;8.23;6.43;;;16.50;80.10;;;;;;5015876;28;20335;-42
2022/06/08 06:25:17;;;;;;;10.35;6.70;;;16.40;79.60;;;;;;5033843;28;20187;-42
2022/06/08 06:27:44;;;;;;;10.73;6.60;;;16.30;79.50;;;;;;5046995;28;20047;-43
2022/06/08 06:30:12;;;;;;;8.60;7.60;;;16.10;80.30;;;;;;5002886;28;20032;-44
2022/06/08 06:32:40;;;;;;;9.95;7.32;;;15.90;80.40;;;;;;5038415;28;20033;-42
2022/06/08 06:35:11;;;;;;;9.73;8.07;;;15.70;81.30;;;;;;5033414;28;20024;-44
2022/06/08 06:37:38;;;;;;;10.50;8.40;;;15.40;81.60;;;;;;5021158;28;20037;-42
2022/06/08 06:40:07;;;;;;;11.18;8.43;;;15.30;82.20;;;;;;5031105;28;20091;-41
2022/06/08 06:42:34;;;;;;;11.73;8.63;;;15.20;82.10;;;;;;5013032;28;20042;-42
2022/06/08 06:45:03;;;;;;;10.02;8.90;;;15.00;82.40;;;;;;5035608;28;20025;-43
2022/06/08 06:47:29;;;;;;;12.68;10.18;;;14.90;82.20;;;;;;4997636;28;20080;-44
2022/06/08 06:49:56;;;;;;;10.30;8.90;;;14.90;82.80;;;;;;5050668;28;20060;-41
2022/06/08 06:52:29;;;;;;;12.93;9.02;;;15.20;83.50;;;;;;5050860;28;20032;-43
2022/06/08 06:54:56;;;;;;;10.07;8.88;;;15.40;83.00;;;;;;5039875;28;20390;-42
2022/06/08 06:57:23;;;;;;;10.93;8.43;;;15.70;81.60;;;;;;5050635;28;20038;-43
2022/06/08 06:59:48;;;;;;;10.50;8.13;;;16.00;81.70;;;;;;5013188;28;20492;-43
2022/06/08 07:02:18;;;;;;;10.82;8.52;;;16.20;80.20;;;;;;5043126;28;20040;-44
2022/06/08 07:04:46;;;;;;;11.68;9.00;;;16.30;79.40;;;;;;5050889;28;20349;-45
2022/06/08 07:07:12;;;;;;;13.98;9.00;;;16.50;79.50;;;;;;5032439;28;20025;-45
2022/06/08 07:09:42;;;;;;;12.05;8.57;;;16.70;78.60;;;;;;5030228;28;20088;-44
2022/06/08 07:12:12;;;;;;;9.70;8.20;;;16.80;78.00;;;;;;5012448;28;20025;-44
2022/06/08 07:14:38;;;;;;;12.65;10.02;;;17.10;77.40;;;;;;5030556;28;20036;-43
2022/06/08 07:17:05;;;;;;;13.60;8.05;;;17.40;75.60;;;;;;5028433;28;20033;-44
2022/06/08 07:19:32;;;;;;;9.63;8.52;;;17.80;75.40;;;;;;5050259;28;20025;-43
2022/06/08 07:21:59;;;;;;;9.65;7.88;;;18.40;73.30;;;;;;5034443;28;20022;-43
2022/06/08 07:24:30;;;;;;;10.32;7.53;;;18.90;70.70;;;;;;5008949;28;20037;-42
2022/06/08 07:26:57;;;;;;;8.82;7.93;;;19.40;69.80;;;;;;5029627;28;20029;-45
2022/06/08 07:29:24;;;;;;;8.93;7.60;;;19.70;67.80;;;;;;5012507;28;20030;-43
2022/06/08 07:31:51;;;;;;;9.13;8.18;;;20.30;66.90;;;;;;5030916;28;20354;-44
2022/06/08 07:34:17;;;;;;;7.80;6.40;;;20.50;66.20;;;;;;5020896;28;20453;-47
2022/06/08 07:36:45;;;;;;;7.88;6.93;;;20.90;65.10;;;;;;5011453;28;20049;-43
2022/06/08 07:39:15;;;;;;;9.43;7.63;;;21.00;64.90;;;;;;5028915;28;20064;-44
2022/06/08 07:41:44;;;;;;;11.77;8.05;;;20.70;66.40;;;;;;5029212;28;20462;-44
2022/06/08 07:44:11;;;;;;;9.45;8.55;;;20.90;64.50;;;;;;5028596;28;20040;-43
2022/06/08 07:46:38;;;;;;;10.38;8.38;;;21.10;62.70;;;;;;5030466;28;20053;-45
2022/06/08 07:51:53;;;;;;;8.10;7.05;;;21.60;63.90;;;;;;5028894;28;20036;-45
2022/06/08 07:54:24;;;;;;;10.02;8.98;;;22.00;61.50;;;;;;5037098;28;20127;-43
2022/06/08 07:56:51;;;;;;;10.25;7.88;;;22.10;60.50;;;;;;5049293;28;20468;-45
2022/06/08 07:59:22;;;;;;;10.15;9.15;;;22.30;60.40;;;;;;5013764;28;20491;-44
2022/06/08 08:01:50;;;;;;;13.23;10.23;;;22.80;59.30;;;;;;5042799;28;20037;-44
2022/06/08 08:04:16;;;;;;;8.48;7.68;;;23.10;58.50;;;;;;5027563;28;20021;-44
2022/06/08 08:06:42;;;;;;;9.82;8.52;;;23.30;58.20;;;;;;5029388;28;20369;-45
2022/06/08 08:09:17;;;;;;;9.45;8.05;;;23.60;58.20;;;;;;5043883;28;20758;-43
2022/06/08 08:11:46;;;;;;;10.93;9.77;;;23.80;57.70;;;;;;5029416;28;20385;-44
2022/06/08 08:14:13;;;;;;;12.27;10.05;;;23.50;55.80;;;;;;5029634;28;20052;-44
2022/06/08 08:16:43;;;;;;;10.48;9.38;;;23.40;58.30;;;;;;5029344;28;20057;-45
2022/06/08 08:19:12;;;;;;;11.23;10.00;;;23.40;57.90;;;;;;5029332;28;20033;-44
2022/06/08 08:21:39;;;;;;;12.55;10.27;;;22.70;57.70;;;;;;5044439;28;20037;-44
2022/06/08 08:24:09;;;;;;;11.35;9.32;;;22.30;61.60;;;;;;5043348;28;20051;-44
2022/06/08 08:26:36;;;;;;;13.63;12.38;;;22.20;61.60;;;;;;5028657;28;20026;-44
2022/06/08 08:29:04;;;;;;;12.75;11.55;;;22.40;60.70;;;;;;5035372;28;20053;-44
2022/06/08 08:31:32;;;;;;;12.70;11.40;;;22.60;60.50;;;;;;5035070;28;20036;-44
2022/06/08 08:34:04;;;;;;;13.63;12.35;;;22.90;60.20;;;;;;5028365;28;20036;-44
2022/06/08 08:36:31;;;;;;;11.55;10.45;;;22.50;60.10;;;;;;5027899;28;20053;-43
2022/06/08 08:39:00;;;;;;;11.60;10.50;;;21.90;60.90;;;;;;5010620;28;20373;-46
2022/06/08 08:44:36;;;;;;;12.30;11.10;;;22.40;62.40;;;;;;5028465;28;20083;-47
2022/06/08 08:47:40;;;;;;;9.75;8.82;;;22.70;61.50;;;;;;5009833;28;20030;-44
2022/06/08 08:50:25;;;;;;;14.20;12.85;;;23.10;60.80;;;;;;5028710;28;20063;-46
2022/06/08 08:53:12;;;;;;;12.70;11.50;;;22.40;60.80;;;;;;5031113;28;20036;-44
2022/06/08 08:56:03;;;;;;;14.38;11.68;;;21.80;63.00;;;;;;5032566;28;20112;-44
2022/06/08 08:58:40;;;;;;;12.85;11.55;;;21.40;64.40;;;;;;5036168;28;20037;-45
2022/06/08 09:01:33;;;;;;;13.63;12.13;;;20.90;65.20;;;;;;5031352;28;20641;-44
2022/06/08 09:04:26;;;;;;;12.50;10.93;;;20.60;67.00;;;;;;5014149;28;20055;-44
2022/06/08 09:06:54;;;;;;;12.80;10.95;;;20.80;67.10;;;;;;5032390;28;20338;-46
2022/06/08 09:09:23;;;;;;;12.93;11.40;;;20.80;67.20;;;;;;5036971;28;20619;-42
2022/06/08 09:11:51;;;;;;;11.88;10.68;;;20.90;65.70;;;;;;5032571;28;20030;-45
2022/06/08 09:14:58;;;;;;;12.52;10.27;;;20.70;66.70;;;;;;5031738;28;20037;-46
2022/06/08 09:17:57;;;;;;;13.95;11.45;;;20.80;66.40;;;;;;5031909;28;20076;-44
2022/06/08 09:20:35;;;;;;;12.82;11.52;;;20.70;67.60;;;;;;5030836;28;20030;-45
2022/06/08 09:23:19;;;;;;;13.10;11.75;;;20.40;68.20;;;;;;5031463;28;20034;-44
2022/06/08 09:25:48;;;;;;;14.35;12.90;;;20.20;69.10;;;;;;5031370;28;20036;-43
2022/06/08 09:28:29;;;;;;;15.05;13.55;;;20.20;69.00;;;;;;5032114;28;20424;-43
2022/06/08 09:30:55;;;;;;;13.25;11.80;;;20.00;69.00;;;;;;5031742;28;20067;-44
2022/06/08 09:33:37;;;;;;;13.75;12.45;;;19.90;69.90;;;;;;5030473;28;20446;-43
2022/06/08 09:36:24;;;;;;;14.27;12.88;;;19.90;71.00;;;;;;5024302;28;20054;-44
2022/06/08 09:38:52;;;;;;;15.68;13.82;;;19.90;70.20;;;;;;5011522;28;20036;-44
2022/06/08 09:41:25;;;;;;;13.60;12.25;;;20.10;70.80;;;;;;5014260;28;20033;-45
2022/06/08 09:44:20;;;;;;;14.95;12.38;;;20.50;70.50;;;;;;5025450;28;20030;-44
2022/06/08 09:53:04;;;;;;;16.40;14.90;;;20.20;69.50;;;;;;5027830;28;20044;-44
2022/06/08 09:55:56;;;;;;;16.77;15.00;;;19.90;70.30;;;;;;5021765;28;20038;-43
2022/06/08 09:58:58;;;;;;;18.23;15.52;;;19.60;71.40;;;;;;5014392;28;20029;-46
2022/06/08 10:01:23;;;;;;;15.70;13.70;;;19.40;71.00;;;;;;5015282;28;20044;-45
2022/06/08 10:04:20;;;;;;;15.23;13.82;;;19.20;71.70;;;;;;5010926;28;20034;-45
2022/06/08 10:06:49;;;;;;;17.65;15.80;;;19.10;72.70;;;;;;5012197;28;20029;-45
2022/06/08 10:09:36;;;;;;;19.47;15.37;;;18.90;73.00;;;;;;5010403;28;20065;-45
2022/06/08 10:12:23;;;;;;;18.08;16.30;;;18.80;74.20;;;;;;5010127;28;20264;-44
2022/06/08 10:15:14;;;;;;;19.58;17.75;;;18.90;74.60;;;;;;5020820;28;20370;-43
2022/06/08 10:17:53;;;;;;;18.85;16.88;;;19.30;73.80;;;;;;5011658;28;20087;-45
2022/06/08 10:20:50;;;;;;;19.35;17.17;;;19.70;73.60;;;;;;5026061;28;20034;-44
2022/06/08 10:23:50;;;;;;;16.70;15.02;;;20.10;71.50;;;;;;5011613;28;20025;-43
2022/06/08 10:26:38;;;;;;;17.30;15.60;;;20.30;70.80;;;;;;5011809;28;20492;-44
2022/06/08 10:29:43;;;;;;;17.23;14.52;;;20.90;72.20;;;;;;5010949;28;20041;-44
2022/06/08 10:32:30;;;;;;;14.63;13.23;;;21.90;69.00;;;;;;5011603;28;20037;-45
2022/06/08 10:34:59;;;;;;;13.70;12.30;;;22.90;65.80;;;;;;5011328;28;20060;-44
2022/06/08 10:37:35;;;;;;;14.65;13.20;;;23.40;62.90;;;;;;5046943;28;20132;-45
2022/06/08 10:40:09;;;;;;;13.55;12.35;;;23.60;62.00;;;;;;5050813;28;20032;-43
2022/06/08 10:42:46;;;;;;;11.65;10.70;;;23.80;59.20;;;;;;5031140;28;20037;-47
2022/06/08 10:45:33;;;;;;;14.88;13.25;;;23.50;61.00;;;;;;5029538;28;20088;-44
2022/06/08 10:48:11;;;;;;;12.25;11.15;;;23.40;61.90;;;;;;5024219;28;20372;-44
2022/06/08 10:51:20;;;;;;;8.65;7.82;;;23.60;61.40;;;;;;5033645;28;20126;-45
2022/06/08 10:56:38;;;;;;;12.00;10.90;;;23.30;60.90;;;;;;5030655;28;20408;-44
2022/06/08 10:59:25;;;;;;;9.57;8.68;;;23.00;62.60;;;;;;5039375;28;20037;-50
2022/06/08 11:02:10;;;;;;;10.10;7.85;;;22.60;62.00;;;;;;5031656;28;20045;-44
2022/06/08 11:05:08;;;;;;;10.05;8.75;;;22.70;62.30;;;;;;5042529;28;20025;-46
2022/06/08 11:08:01;;;;;;;9.68;8.77;;;22.90;62.80;;;;;;5041216;28;20048;-45
2022/06/08 11:11:00;;;;;;;9.23;8.40;;;22.70;61.60;;;;;;5038914;28;20060;-46
2022/06/08 11:13:51;;;;;;;9.77;8.18;;;22.90;63.50;;;;;;5014852;28;20103;-44
2022/06/08 11:16:32;;;;;;;9.32;7.97;;;23.30;62.30;;;;;;5030539;28;20421;-47
2022/06/08 11:19:14;;;;;;;8.73;7.88;;;23.30;61.30;;;;;;5037041;28;20116;-44
2022/06/08 11:21:49;;;;;;;7.13;6.45;;;23.40;62.50;;;;;;5033385;28;20453;-45
2022/06/08 11:24:53;;;;;;;8.32;7.43;;;23.40;61.70;;;;;;5039133;28;20343;-46
2022/06/08 11:27:20;;;;;;;10.38;8.15;;;23.90;61.40;;;;;;4950085;29;20039;-46
2022/06/08 11:29:55;;;;;;;12.93;11.20;;;23.80;61.20;;;;;;4949044;29;20035;-45
2022/06/08 11:32:35;;;;;;;11.43;9.38;;;23.50;60.10;;;;;;4948899;29;20027;-48
2022/06/08 11:35:19;;;;;;;7.15;5.22;;;23.20;59.50;;;;;;4949776;29;20039;-49
2022/06/08 11:38:25;;;;;;;7.18;6.47;;;23.10;59.90;;;;;;4948948;29;20523;-45
2022/06/08 11:41:34;;;;;;;6.63;5.88;;;22.70;60.90;;;;;;4941163;29;20429;-44
2022/06/08 11:44:11;;;;;;;7.95;6.22;;;22.70;63.20;;;;;;4872963;29;20382;-45
2022/06/08 11:46:40;;;;;;;9.00;6.47;;;22.60;63.30;;;;;;4873188;29;20057;-46
2022/06/08 11:49:25;;;;;;;;;;;22.30;62.40;;;;;;4873347;29;20033;-44
2022/06/08 11:51:53;;;;;;;11.18;9.98;;;22.20;64.10;;;;;;4873196;29;19939;-45
2022/06/08 11:54:32;;;;;;;15.95;14.07;;;22.00;63.80;;;;;;4874060;29;20115;-44
2022/06/08 11:57:15;;;;;;;10.00;9.00;;;22.00;64.80;;;;;;4873581;29;20041;-45
2022/06/08 11:59:45;;;;;;;7.03;5.78;;;22.60;66.20;;;;;;4874011;29;20054;-44
2022/06/08 12:02:22;;;;;;;5.60;4.75;;;22.80;62.60;;;;;;4927241;29;20023;-44
2022/06/08 12:04:54;;;;;;;5.65;4.53;;;22.60;62.80;;;;;;4929690;29;20456;-45
2022/06/08 12:07:45;;;;;;;5.50;4.70;;;22.40;64.20;;;;;;4937626;29;20749;-45
2022/06/08 12:10:20;;;;;;;5.47;3.97;;;22.20;64.10;;;;;;4941115;29;20122;-45
2022/06/08 12:12:48;;;;;;;5.85;3.38;;;21.90;64.90;;;;;;4948469;29;20043;-44
2022/06/08 12:15:35;;;;;;;7.27;4.43;;;22.00;66.20;;;;;;4945454;29;20051;-45
2022/06/08 12:18:36;;;;;;;7.05;4.28;;;22.10;65.20;;;;;;4930935;29;20063;-43
2022/06/08 12:21:25;;;;;;;5.88;3.67;;;22.30;64.40;;;;;;4977688;28;20350;-43
2022/06/08 12:24:12;;;;;;;7.18;3.60;;;22.40;63.50;;;;;;5009545;28;20457;-45
2022/06/08 12:27:21;;;;;;;4.93;3.33;;;22.40;62.80;;;;;;5009051;28;20037;-47
2022/06/08 12:29:52;;;;;;;6.13;3.83;;;22.50;62.30;;;;;;5009492;28;20022;-45
2022/06/08 12:32:26;;;;;;;4.18;2.83;;;22.40;63.20;;;;;;5009126;28;20026;-45
2022/06/08 12:35:07;;;;;;;4.47;2.92;;;22.90;62.70;;;;;;5009639;28;20076;-47
2022/06/08 12:38:04;;;;;;;4.07;2.28;;;23.00;61.30;;;;;;5028416;28;20081;-44
2022/06/08 12:40:32;;;;;;;3.92;2.20;;;23.40;61.40;;;;;;5028940;28;20469;-45
2022/06/08 12:43:18;;;;;;;2.88;1.63;;;23.60;58.20;;;;;;5029807;28;20429;-44
2022/06/08 12:46:08;;;;;;;3.20;1.63;;;23.50;57.60;;;;;;5009620;28;20030;-44
2022/06/08 12:49:04;;;;;;;;;;;23.60;56.70;;;;;;5016948;28;20030;-47
2022/06/08 12:51:50;;;;;;;4.32;2.40;;;23.50;55.60;;;;;;5024126;28;19923;-45
2022/06/08 12:54:37;;;;;;;3.33;1.95;;;23.40;57.20;;;;;;5028458;28;20032;-43
2022/06/08 12:57:16;;;;;;;4.57;2.75;;;23.50;60.10;;;;;;5029407;28;20040;-44
2022/06/08 12:59:44;;;;;;;4.70;2.85;;;23.50;56.90;;;;;;5028962;28;20030;-44
2022/06/08 13:02:42;;;;;;;4.55;3.00;;;23.40;57.90;;;;;;5011355;28;20068;-43
2022/06/08 13:05:31;;;;;;;4.22;2.53;;;23.50;58.00;;;;;;5014683;28;20068;-45
2022/06/08 13:07:59;;;;;;;7.18;2.67;;;23.30;58.20;;;;;;5028568;28;20053;-47
2022/06/08 13:10:29;;;;;;;4.43;3.25;;;23.00;58.50;;;;;;5028043;28;20025;-43
2022/06/08 13:13:03;;;;;;;4.20;2.65;;;23.00;59.90;;;;;;5014119;28;20549;-45
2022/06/08 13:15:37;;;;;;;5.10;2.72;;;23.00;60.10;;;;;;5038656;28;20033;-46
2022/06/08 13:18:04;;;;;;;4.18;2.58;;;22.80;59.80;;;;;;5012219;28;20338;-45
2022/06/08 13:20:39;;;;;;;4.15;2.53;;;22.70;60.10;;;;;;5040067;28;20029;-44
2022/06/08 13:23:06;;;;;;;4.50;2.13;;;22.80;60.80;;;;;;5028443;28;20338;-46
2022/06/08 13:25:33;;;;;;;5.40;2.40;;;22.90;62.50;;;;;;5040720;28;20492;-47
2022/06/08 13:28:01;;;;;;;6.57;2.83;;;23.20;60.40;;;;;;5042098;28;20355;-47
2022/06/08 13:30:33;;;;;;;5.18;2.72;;;23.20;59.20;;;;;;5048358;28;20033;-44
2022/06/08 13:33:00;;;;;;;3.42;1.70;;;23.30;59.20;;;;;;5033587;28;20038;-44
2022/06/08 13:35:30;;;;;;;2.90;1.60;;;23.40;59.00;;;;;;5011124;28;20033;-44